Latest Weather Observations for Esperance Airport

IDW60801

Issued at 4:43 pm WST Sunday 24 January 2021 (issued every 10 minutes, with the page automatically refreshed every 10 minutes)

About weather observations | Map of weather stations | Latest weather observations for WA | Other Formats
Station Details ID: 009542 Name: ESPERANCE AERO Lat: -33.68 Lon: 121.83 Height: 142.0 m
Data from the previous 72 hours. | See also: Recent months at Esperance Airport
Date/Time
WST
Temp
°C
App
Temp
°C
Dew
Point
°C
Rel
Hum
%
Delta-T
°C
Wind Press
QNH
hPa
Press
MSL
hPa
Rain since
9am
mm
Dir  Spd
km/h
Gust
km/h
Spd
kts
Gust
kts
24/04:30pm 22.2 19.7 14.1 60 4.8 SSE 20 30 11 16 1005.0 1004.4 0.0
24/04:00pm 22.5 19.8 13.6 57 5.2 SSE 20 26 11 14 1005.1 1004.5 0.0
24/03:30pm 22.5 19.8 13.6 57 5.2 SSE 20 30 11 16 1005.2 1004.6 0.0
24/03:00pm 22.5 18.8 13.8 58 5.1 SSE 26 35 14 19 1005.1 1004.5 0.0
24/02:30pm 23.5 20.0 13.4 53 5.9 SSE 24 32 13 17 1005.1 1004.5 0.0
24/02:00pm 23.7 20.3 13.6 53 5.9 S 24 37 13 20 1005.2 1004.6 0.0
24/01:30pm 24.4 21.3 13.3 50 6.5 SSE 22 32 12 17 1005.3 1004.7 0.0
24/01:00pm 23.8 20.7 12.1 48 6.7 SSE 20 30 11 16 1005.2 1004.6 0.0
24/12:30pm 23.8 21.1 13.6 52 6.0 SSE 20 28 11 15 1005.2 1004.6 0.0
24/12:00pm 22.8 20.9 13.0 54 5.7 SSE 15 22 8 12 1005.2 1004.6 0.0
24/11:30am 22.1 21.0 14.2 61 4.6 S 13 20 7 11 1005.3 1004.7 0.0
24/11:00am 21.8 21.1 14.2 62 4.5 SSE 11 19 6 10 1005.3 1004.7 0.0
24/10:30am 20.9 19.5 14.5 67 3.8 SSE 15 20 8 11 1005.3 1004.7 0.0
24/10:00am 20.0 19.6 15.2 74 2.9 SE 11 19 6 10 1005.5 1004.9 0.0
24/09:30am 18.3 19.0 16.1 87 1.3 ESE 7 11 4 6 1005.7 1005.2 0.0
24/09:13am 17.8 18.7 16.0 89 1.1 SSE 6 11 3 6 1005.9 1005.4 0.0
24/09:09am 17.5 18.1 15.7 89 1.1 SSE 7 11 4 6 1005.9 1005.4 0.0
24/09:00am 17.4 17.5 15.6 89 1.1 SSE 9 13 5 7 1006.0 1005.5 0.0
24/08:57am 17.4 17.2 15.6 89 1.1 SSE 11 15 6 8 1006.0 1005.5 0.0
24/08:51am 17.5 16.5 15.5 88 1.2 S 15 19 8 10 1005.9 1005.4 0.0
24/08:39am 17.5 15.9 15.1 86 1.4 S 17 20 9 11 1005.9 1005.4 0.0
24/08:30am 17.8 16.5 14.9 83 1.7 S 15 19 8 10 1006.0 1005.5 0.0
24/08:00am 18.6 17.0 14.9 79 2.2 S 17 20 9 11 1005.9 1005.4 0.0
24/07:30am 18.4 17.1 14.9 80 2.0 S 15 19 8 10 1005.9 1005.4 0.0
24/07:00am 18.5 17.7 15.0 80 2.1 S 13 20 7 11 1005.5 1004.9 0.0
24/06:30am 18.5 17.1 15.6 83 1.7 S 17 20 9 11 1005.0 1004.4 0.0
24/06:00am 18.1 17.4 15.5 85 1.5 SSW 13 17 7 9 1004.8 1004.2 0.0
24/05:30am 17.9 17.3 15.7 87 1.3 SW 13 17 7 9 1004.7 1004.1 0.0
24/05:00am 17.7 17.2 15.9 89 1.1 SSW 13 17 7 9 1004.5 1003.9 0.0
24/04:30am 17.5 16.6 15.8 90 1.0 SW 15 19 8 10 1004.1 1003.5 0.0
24/04:00am 17.3 17.1 15.8 91 0.9 SSW 11 13 6 7 1003.7 1003.1 0.0
24/03:30am 17.3 16.8 15.8 91 0.9 SSW 13 17 7 9 1003.8 1003.2 0.0
24/03:00am 17.8 17.5 16.5 92 0.8 SW 13 17 7 9 1003.5 1002.9 0.0
24/02:30am 17.9 17.6 16.4 91 0.9 SW 13 17 7 9 1003.6 1003.0 0.0
24/02:00am 18.0 17.7 16.5 91 0.9 SW 13 15 7 8 1003.6 1003.0 0.0
24/01:30am 18.1 17.9 16.6 91 0.9 SW 13 17 7 9 1003.6 1003.0 0.0
24/01:00am 18.2 18.0 16.7 91 0.9 SW 13 19 7 10 1004.0 1003.4 0.0
24/12:30am 18.0 18.3 16.9 93 0.7 WSW 11 13 6 7 1003.7 1003.1 0.0
24/12:00am 17.9 17.7 16.8 93 0.7 SW 13 17 7 9 1003.6 1003.0 0.0
 
Date/Time
WST
Temp
°C
App
Temp
°C
Dew
Point
°C
Rel
Hum
%
Delta-T
°C
Wind Press
QNH
hPa
Press
MSL
hPa
Rain since
9am
mm
Dir  Spd
km/h
Gust
km/h
Spd
kts
Gust
kts
23/11:30pm 17.4 17.8 16.4 94 0.6 WSW 9 13 5 7 1003.6 1003.0 0.0
23/11:00pm 17.2 16.8 16.1 93 0.7 SW 13 15 7 8 1003.5 1002.9 0.0
23/10:50pm 17.3 16.9 16.2 93 0.7 SW 13 15 7 8 1003.5 1002.9 0.0
23/10:30pm 17.2 17.1 16.1 93 0.7 SSW 11 13 6 7 1003.6 1003.0 0.0
23/10:00pm 17.4 17.3 16.1 92 0.8 SSW 11 13 6 7 1003.7 1003.1 0.0
23/09:38pm 17.6 17.5 16.1 91 0.9 WSW 11 17 6 9 1004.2 1003.6 0.0
23/09:30pm 17.6 17.5 16.1 91 0.9 WSW 11 17 6 9 1004.1 1003.5 0.0
23/09:23pm 17.6 17.9 15.9 90 1.0 WSW 9 15 5 8 1004.1 1003.5 0.0
23/09:00pm 17.8 17.0 16.0 89 1.1 SW 15 19 8 10 1003.6 1003.0 0.0
23/08:30pm 18.1 17.6 15.9 87 1.3 WSW 13 15 7 8 1003.6 1003.0 0.0
23/08:00pm 18.5 18.1 16.1 86 1.4 SW 13 17 7 9 1003.0 1002.4 0.0
23/07:30pm 19.0 17.3 16.2 84 1.7 WSW 20 28 11 15 1003.0 1002.4 0.0
23/07:00pm 19.8 18.2 16.6 82 1.9 SW 20 22 11 12 1002.4 1001.8 0.0
23/06:30pm 20.5 19.2 16.7 79 2.3 SW 19 24 10 13 1002.3 1001.7 0.0
23/06:00pm 20.9 19.6 16.7 77 2.6 SSW 19 22 10 12 1001.8 1001.2 0.0
23/05:30pm 22.6 21.2 16.9 70 3.5 SW 20 28 11 15 1001.5 1001.0 0.0
23/05:00pm 24.3 23.6 17.3 65 4.4 SW 17 22 9 12 1001.0 1000.5 0.0
23/04:30pm 24.5 22.2 17.7 66 4.3 S 26 32 14 17 1000.1 999.6 0.0
23/04:00pm 22.8 24.0 19.0 79 2.4 ESE 11 22 6 12 1001.2 1000.7 0.0
23/03:32pm 21.1 20.9 17.5 80 2.2 SW 15 22 8 12 1000.6 1000.1 0.0
23/03:30pm 21.3 21.3 17.3 78 2.5 SW 13 22 7 12 1000.8 1000.3 0.0
23/03:13pm 22.2 20.9 16.7 71 3.4 S 19 30 10 16 1000.0 999.5 0.0
23/03:00pm 23.0 20.4 16.8 68 3.8 S 26 37 14 20 1000.0 999.5 0.0
23/02:57pm 23.0 20.4 16.8 68 3.8 SSW 26 37 14 20 1000.2 999.7 0.0
23/02:55pm 23.5 20.8 16.5 65 4.3 SSW 26 35 14 19 1000.3 999.8 0.0
23/02:30pm 28.5 26.2 15.8 46 7.9 SSE 22 32 12 17 999.6 999.1 0.0
23/02:03pm 29.9 26.4 15.6 42 8.9 SE 28 37 15 20 998.5 997.9 0.0
23/02:00pm 30.2 27.2 15.9 42 9.0 SE 26 33 14 18 998.5 997.9 0.0
23/01:53pm 30.3 26.8 15.6 41 9.1 SE 28 35 15 19 998.5 997.9 0.0
23/01:38pm 30.3 27.5 16.3 42 8.8 SE 26 35 14 19 998.7 998.1 0.0
23/01:30pm 30.4 28.5 16.8 44 8.6 SE 22 32 12 17 998.8 998.2 0.0
23/01:28pm 29.5 27.6 16.7 46 8.1 SE 22 32 12 17 999.0 998.4 0.0
23/01:08pm 30.6 28.1 16.2 41 9.0 SE 24 32 13 17 998.8 998.2 0.0
23/01:00pm 31.2 28.4 16.4 41 9.4 SE 26 32 14 17 998.7 998.1 0.0
23/12:50pm 30.1 27.4 16.5 44 8.6 SE 26 35 14 19 999.0 998.4 0.0
23/12:30pm 28.0 25.7 16.6 50 7.1 SE 24 32 13 17 999.2 998.6 0.0
23/12:00pm 29.9 28.0 17.7 48 7.8 SSE 24 32 13 17 999.2 998.6 0.0
23/11:30am 29.4 27.7 17.2 47 7.7 ESE 22 26 12 14 999.5 998.9 0.0
23/11:00am 30.9 30.1 17.2 43 8.8 ESE 17 32 9 17 999.8 999.3 0.0
23/10:30am 28.8 29.2 16.4 47 7.8 ESE 9 15 5 8 1000.4 999.9 0.0
23/10:00am 27.4 28.0 16.7 52 6.7 ESE 9 13 5 7 1000.4 999.9 0.0
23/09:30am 26.9 27.9 16.8 54 6.3 SSE 7 13 4 7 1000.6 1000.1 0.0
23/09:00am 26.1 27.1 16.4 55 6.0 SW 6 9 3 5 1000.7 1000.2 0.0
23/08:30am 25.1 26.1 16.8 60 5.2 ENE 7 11 4 6 1001.1 1000.6 0.0
23/08:00am 22.2 22.3 16.5 70 3.5 WNW 11 17 6 9 1001.0 1000.5 0.0
23/07:30am 21.5 20.3 16.2 72 3.2 WSW 17 22 9 12 1001.0 1000.5 0.0
23/07:00am 20.7 19.3 15.5 72 3.1 W 17 20 9 11 1001.1 1000.6 0.0
23/06:30am 20.4 19.6 15.2 72 3.1 W 13 17 7 9 1001.2 1000.7 0.0
23/06:00am 20.2 20.4 14.8 71 3.2 WNW 7 13 4 7 1001.0 1000.5 0.0
23/05:30am 19.7 19.8 14.5 72 3.0 NNW 7 9 4 5 1000.7 1000.2 0.0
23/05:00am 19.6 20.9 14.2 71 3.2 CALM 0 0 0 0 1000.9 1000.4 0.0
23/04:30am 19.8 20.3 14.0 69 3.4 SW 4 9 2 5 1000.3 999.8 0.0
23/04:00am 19.9 19.8 14.0 69 3.4 N 7 11 4 6 1000.2 999.7 0.0
23/03:30am 20.4 20.4 14.3 68 3.6 NNW 7 9 4 5 1000.0 999.5 0.0
23/03:00am 20.1 21.4 14.2 69 3.5 CALM 0 0 0 0 1000.5 1000.0 0.0
23/02:30am 20.3 19.9 14.0 67 3.7 SW 9 19 5 10 1000.7 1000.2 0.0
23/02:00am 21.4 21.0 13.1 59 4.8 N 7 9 4 5 1000.8 1000.3 0.0
23/01:30am 21.6 20.8 13.0 58 4.9 NW 9 11 5 6 1001.3 1000.8 0.0
23/01:00am 22.3 21.5 12.8 55 5.5 WNW 9 13 5 7 1001.9 1001.3 0.0
23/12:30am 22.9 20.4 13.4 55 5.5 NNE 19 26 10 14 1001.4 1000.9 0.0
23/12:00am 22.2 20.2 13.8 59 4.9 NNE 17 26 9 14 1001.6 1001.1 0.0
 
Date/Time
WST
Temp
°C
App
Temp
°C
Dew
Point
°C
Rel
Hum
%
Delta-T
°C
Wind Press
QNH
hPa
Press
MSL
hPa
Rain since
9am
mm
Dir  Spd
km/h
Gust
km/h
Spd
kts
Gust
kts
22/11:30pm 21.3 19.1 14.5 65 4.0 NE 19 32 10 17 1002.8 1002.2 0.0
22/11:00pm 20.5 18.8 14.6 69 3.5 NNE 17 28 9 15 1002.6 1002.0 0.0
22/10:30pm 20.6 18.4 14.5 68 3.6 NNE 19 28 10 15 1002.4 1001.8 0.0
22/10:00pm 20.2 18.5 14.8 71 3.2 NE 17 22 9 12 1002.5 1001.9 0.0
22/09:30pm 20.1 18.7 15.5 75 2.7 NE 17 24 9 13 1003.0 1002.4 0.0
22/09:00pm 20.6 18.6 15.4 72 3.1 NE 20 32 11 17 1002.9 1002.3 0.0
22/08:30pm 20.7 17.9 15.3 71 3.2 ENE 24 30 13 16 1002.6 1002.0 0.0
22/08:00pm 21.2 18.0 15.3 69 3.5 ESE 26 30 14 16 1002.5 1001.9 0.0
22/07:30pm 22.2 19.5 15.5 66 4.0 ESE 24 32 13 17 1002.5 1001.9 0.0
22/07:00pm 22.7 19.9 15.3 63 4.5 ESE 24 28 13 15 1002.7 1002.1 0.0
22/06:30pm 23.7 20.6 15.5 60 5.0 ESE 26 33 14 18 1002.7 1002.1 0.0
22/06:00pm 25.1 21.3 15.7 56 5.8 E 30 37 16 20 1002.6 1002.0 0.0
22/05:30pm 25.6 21.4 15.6 54 6.1 E 32 39 17 21 1002.5 1001.9 0.0
22/05:00pm 26.3 21.4 15.4 51 6.7 E 35 43 19 23 1002.7 1002.1 0.0
22/04:30pm 27.7 23.1 15.0 45 7.7 E 33 41 18 22 1003.0 1002.4 0.0
22/04:00pm 27.9 23.3 15.2 46 7.8 E 33 44 18 24 1003.4 1002.8 0.0
22/03:30pm 28.6 24.7 15.5 45 8.1 E 30 43 16 23 1003.9 1003.3 0.0
22/03:00pm 28.6 24.7 15.5 45 8.1 SE 30 43 16 23 1004.5 1003.9 0.0
22/02:30pm 28.1 24.4 16.1 48 7.5 SE 30 39 16 21 1004.6 1004.0 0.0
22/02:00pm 27.8 24.3 16.4 50 7.1 SSE 30 39 16 21 1005.1 1004.5 0.0
22/01:30pm 27.1 23.6 16.4 52 6.7 SE 30 39 16 21 1005.6 1005.0 0.0
22/01:00pm 27.4 23.9 16.4 51 6.9 SSE 30 37 16 20 1006.0 1005.5 0.0
22/12:30pm 26.9 23.7 16.2 52 6.6 SSE 28 35 15 19 1006.5 1006.0 0.0
22/12:00pm 27.1 24.6 16.1 51 6.8 SE 24 33 13 18 1007.1 1006.6 0.0
22/11:30am 27.4 24.9 16.1 50 7.0 SSE 24 32 13 17 1007.6 1007.1 0.0
22/11:00am 26.6 24.0 15.9 51 6.6 SSE 24 33 13 18 1008.0 1007.5 0.0
22/10:30am 24.9 22.5 15.5 56 5.7 SSE 22 32 12 17 1008.8 1008.3 0.0
22/10:00am 25.7 23.5 14.5 50 6.7 ESE 19 32 10 17 1009.6 1009.0 0.0
22/09:30am 25.0 22.8 14.8 53 6.1 ESE 20 32 11 17 1010.0 1009.4 0.0
22/09:00am 24.3 22.3 15.0 56 5.6 ESE 19 28 10 15 1010.2 1009.6 0.0
22/08:30am 22.2 20.4 15.5 66 4.0 ESE 19 24 10 13 1010.5 1009.9 0.0
22/08:00am 21.2 19.1 14.8 67 3.8 ESE 19 28 10 15 1010.9 1010.3 0.0
22/07:32am 20.0 17.9 15.2 74 2.8 ESE 20 28 11 15 1011.1 1010.5 0.0
22/07:30am 20.1 18.2 15.7 76 2.6 ESE 20 28 11 15 1011.2 1010.6 0.0
22/07:00am 18.5 16.4 15.2 81 1.9 ESE 20 26 11 14 1011.4 1010.8 0.0
22/06:30am 18.0 15.4 14.9 82 1.8 ESE 22 28 12 15 1011.3 1010.7 0.0
22/06:00am 17.7 15.5 15.0 84 1.6 ESE 20 26 11 14 1011.0 1010.4 0.0
22/05:30am 17.4 15.8 14.9 85 1.5 SE 17 24 9 13 1011.1 1010.5 0.0
22/05:00am 17.4 16.1 14.9 85 1.5 SE 15 20 8 11 1011.3 1010.7 0.0
22/04:30am 17.5 16.2 14.8 84 1.6 SE 15 19 8 10 1011.1 1010.5 0.0
22/04:00am 17.7 16.5 15.0 84 1.6 ESE 15 17 8 9 1011.3 1010.7 0.0
22/03:30am 17.7 16.9 15.0 84 1.6 SE 13 19 7 10 1011.4 1010.8 0.0
22/03:00am 17.6 16.0 14.9 84 1.6 SE 17 20 9 11 1011.4 1010.8 0.0
22/02:30am 17.7 16.1 15.0 84 1.6 SE 17 24 9 13 1011.7 1011.1 0.0
22/02:00am 17.6 15.6 14.9 84 1.6 SE 19 24 10 13 1011.9 1011.4 0.0
22/01:30am 17.4 15.4 14.9 85 1.5 SE 19 22 10 12 1012.0 1011.5 0.0
22/01:00am 17.6 16.1 15.2 86 1.4 SE 17 26 9 14 1012.1 1011.6 0.0
22/12:30am 17.5 15.4 15.1 86 1.4 SSE 20 28 11 15 1012.2 1011.7 0.0
22/12:00am 17.5 15.6 15.1 86 1.4 SE 19 22 10 12 1012.4 1011.9 0.0
 
Date/Time
WST
Temp
°C
App
Temp
°C
Dew
Point
°C
Rel
Hum
%
Delta-T
°C
Wind Press
QNH
hPa
Press
MSL
hPa
Rain since
9am
mm
Dir  Spd
km/h
Gust
km/h
Spd
kts
Gust
kts
21/11:30pm 17.5 15.9 15.1 86 1.4 SE 17 24 9 13 1012.7 1012.2 0.0
21/11:00pm 17.3 16.4 14.8 85 1.5 SSE 13 19 7 10 1013.0 1012.5 0.0
21/10:30pm 17.5 16.2 14.8 84 1.6 SSE 15 20 8 11 1013.1 1012.6 0.0
21/10:00pm 17.9 15.9 15.0 83 1.7 SE 19 22 10 12 1013.6 1013.1 0.0
21/09:30pm 18.0 15.4 14.9 82 1.8 ESE 22 26 12 14 1013.6 1013.1 0.0
21/09:00pm 18.2 16.1 15.3 83 1.7 SE 20 28 11 15 1013.5 1013.0 0.0
21/08:30pm 18.2 15.8 15.3 83 1.7 SSE 22 30 12 16 1013.3 1012.8 0.0
21/08:00pm 18.2 15.5 15.5 84 1.6 SE 24 32 13 17 1012.9 1012.4 0.0
21/07:30pm 18.3 15.2 15.6 84 1.6 SSE 26 32 14 17 1012.7 1012.2 0.0
21/07:00pm 18.4 15.7 15.5 83 1.7 SSE 24 33 13 18 1012.6 1012.1 0.0
21/06:30pm 18.5 15.0 15.4 82 1.8 SSE 28 35 15 19 1012.2 1011.7 0.0
21/06:00pm 19.3 15.8 15.6 79 2.2 SSE 28 35 15 19 1012.0 1011.5 0.0
21/05:30pm 20.3 16.9 15.9 76 2.6 SSE 28 35 15 19 1011.9 1011.4 0.0
21/05:28pm 20.1 16.7 15.9 77 2.5 SSE 28 35 15 19 1011.9 1011.4 0.0
21/05:00pm 20.7 16.8 15.5 72 3.1 SSE 30 41 16 22 1011.4 1010.8 0.0

Other formats

Comma delimited format used in spreadsheet applications
http://www.bom.gov.au/fwo/IDW60801/IDW60801.95638.axf

JavaScript Object Notation format (JSON) in row-major order
http://www.bom.gov.au/fwo/IDW60801/IDW60801.95638.json

Data quality

Most of these data are generated automatically and are frequently updated. Quality checks on data are not normally performed. It is possible for incorrect values to appear. Refer to information at About Latest Weather Observations and please check the disclaimer before using these data.